Meteo Giornale » Osservazioni meteo Italia » Firenze-Peretola

ore: 16:50 - Osservazioni Meteo Firenze-Peretola
Lat. 43° 48' N Lon. 11° 12' E Alt. 40 metri s.l.m.

sereno Europe/Rome

8 °C

Sereno

Temp. 24 Ore

3 °C

11 °C

Nord/NOvest

9.3 Km/h

Dew point 0 °C

Umidità 56 %

Visibilità  10 Km

Il sole sorge alle ore 07:39

Il sole tramonta alle ore 17:14

Data e Ora Cielo e Fenomeni T °C DP °C Um. % Pres. hPa Vis. km Vento km/h
Oggi h: 16:50 sereno Sereno 8 0 56 1023 10 N/NO 9.3
Oggi h: 16:20 sereno Sereno 9 0 53 1023 10 N 14.8
Oggi h: 15:50 sereno Sereno 10 0 49 1023 10 N 9.3
Oggi h: 15:20 sereno Sereno 10 0 49 1023 10 N/NE 18.5
Oggi h: 14:50 sereno Sereno 11 0 46 1023 10 N/NE 18.5
Oggi h: 14:20 sereno Sereno 11 0 46 1023 10 N/NE 18.5
Oggi h: 13:50 poco_nuvoloso Poco Nuvoloso 10 -0 49 1023 10 N 11.1
Oggi h: 13:20 poco_nuvoloso Poco Nuvoloso 11 -1 43 1024 10 N 9.3
Oggi h: 12:50 poco_nuvoloso Poco Nuvoloso 11 -0 46 1024 10 N 9.3
Oggi h: 12:20 poco_nuvoloso Poco Nuvoloso 11 -0 46 1025 10 N 7.4
Oggi h: 11:50 poco_nuvoloso Poco Nuvoloso 10 -1 46 1025 10 NO 11.1
Oggi h: 11:20 poco_nuvoloso Poco Nuvoloso 10 -1 46 1025 10 N 9.3
Oggi h: 10:50 poco_nuvoloso Poco Nuvoloso 10 -1 46 1025 10 N 5.5
Oggi h: 10:20 poco_nuvoloso Poco Nuvoloso 9 -2 45 1025 10 N 5.5
Oggi h: 09:50 poco_nuvoloso Poco Nuvoloso 8 -2 49 1025 10 N/NO 7.4
Oggi h: 09:20 sereno Sereno 8 -2 49 1025 10 N 7.4
Oggi h: 08:50 sereno Sereno 7 -2 52 1025 10 N 5.5
Oggi h: 08:20 sereno Sereno 7 -2 52 1025 10 N 7.4
Oggi h: 07:50 sereno Sereno 7 -3 48 1025 10 N 5.5
Oggi h: 07:20 sereno Sereno 5 -3 56 1025 10 N 5.5
Oggi h: 06:50 sereno Sereno 6 -2 56 1025 10 N 3.7
Oggi h: 06:20 sereno Sereno 6 -2 56 1025 10 N 11.1
Oggi h: 05:50 sereno Sereno 3 -3 64 1025 10 SO 7.4
Oggi h: 05:20 sereno Sereno 5 -2 60 1025 10 S/SO 9.3
Oggi h: 04:20 sereno Sereno 6 -2 56 1025 10 O 7.4
Oggi h: 03:50 sereno Sereno 7 -2 52 1025 10 N 7.4
Oggi h: 03:20 sereno Sereno 5 -2 60 1025 10 N 5.5
Oggi h: 01:50 sereno Sereno 5 -2 60 1025 10 O/SO 9.3
Oggi h: 01:20 sereno Sereno 6 -2 56 1026 10 N 5.5
Oggi h: 00:50 sereno Sereno 6 -1 60 1026 10 N 11.1
Oggi h: 00:20 sereno Sereno 5 -1 65 1026 10 N 11.1
Ieri h: 23:50 sereno Sereno 6 -1 60 1026 10 N 16.7
Ieri h: 23:20 sereno Sereno 6 -1 60 1026 10 N/NE 24
Ieri h: 22:50 sereno Sereno 6 -1 60 1026 10 N/NE 27.8
Ieri h: 22:20 sereno Sereno 6 -2 56 1026 10 N/NE 22.2
Ieri h: 21:50 sereno Sereno 6 -2 56 1026 10 N/NE 22.2
Ieri h: 21:20 sereno Sereno 6 -2 56 1026 10 N/NE 20.3
Ieri h: 20:50 sereno Sereno 5 -2 60 1026 10 NE 22.2
Ieri h: 20:20 sereno Sereno 6 -2 56 1026 10 N/NE 27.8
Ieri h: 19:50 sereno Sereno 5 -2 60 1026 10 N/NE 24
Ieri h: 19:20 sereno Sereno 5 -2 60 1026 10 NE 25.9
Ieri h: 18:50 sereno Sereno 5 -2 60 1026 10 N/NE 27.8
Ieri h: 18:20 sereno Sereno 5 -2 60 1026 10 N/NE 18.5
Ieri h: 17:50 sereno Sereno 6 -2 56 1025 10 N/NE 24
Ieri h: 17:20 sereno Sereno 7 -2 52 1025 10 NE 25.9
Ieri h: 16:50 sereno Sereno 7 -2 52 1025 10 N/NE 20.3